sensor_id;sensor_type;location;lat;lon;timestamp;temperature;humidity
7738;DHT22;29398;45.328;5.558;2023-08-12T00:01:07;24.60;82.90
7738;DHT22;29398;45.328;5.558;2023-08-12T00:02:08;24.60;82.90
7738;DHT22;29398;45.328;5.558;2023-08-12T00:03:11;24.60;83.00
7738;DHT22;29398;45.328;5.558;2023-08-12T00:04:12;24.60;83.00
7738;DHT22;29398;45.328;5.558;2023-08-12T00:05:15;24.50;83.30
7738;DHT22;29398;45.328;5.558;2023-08-12T00:06:16;24.50;82.60
7738;DHT22;29398;45.328;5.558;2023-08-12T00:07:18;24.50;83.50
7738;DHT22;29398;45.328;5.558;2023-08-12T00:08:19;24.50;83.40
7738;DHT22;29398;45.328;5.558;2023-08-12T00:09:21;24.50;83.70
7738;DHT22;29398;45.328;5.558;2023-08-12T00:10:23;24.50;83.70
7738;DHT22;29398;45.328;5.558;2023-08-12T00:11:29;24.50;83.80
7738;DHT22;29398;45.328;5.558;2023-08-12T00:12:31;24.40;83.70
7738;DHT22;29398;45.328;5.558;2023-08-12T00:13:33;24.40;83.90
7738;DHT22;29398;45.328;5.558;2023-08-12T00:14:34;24.40;84.10
7738;DHT22;29398;45.328;5.558;2023-08-12T00:16:41;24.40;83.80
7738;DHT22;29398;45.328;5.558;2023-08-12T00:17:43;24.40;84.40
7738;DHT22;29398;45.328;5.558;2023-08-12T00:18:44;24.40;84.40
7738;DHT22;29398;45.328;5.558;2023-08-12T00:19:46;24.40;84.20
7738;DHT22;29398;45.328;5.558;2023-08-12T00:20:48;24.30;84.70
7738;DHT22;29398;45.328;5.558;2023-08-12T00:21:50;24.30;84.60
7738;DHT22;29398;45.328;5.558;2023-08-12T00:22:53;24.30;84.40
7738;DHT22;29398;45.328;5.558;2023-08-12T00:23:55;24.30;84.70
7738;DHT22;29398;45.328;5.558;2023-08-12T00:24:56;24.30;84.70
7738;DHT22;29398;45.328;5.558;2023-08-12T00:25:58;24.30;84.90
7738;DHT22;29398;45.328;5.558;2023-08-12T00:27:00;24.30;84.90
7738;DHT22;29398;45.328;5.558;2023-08-12T00:28:03;24.30;85.00
7738;DHT22;29398;45.328;5.558;2023-08-12T00:29:04;24.30;85.40
7738;DHT22;29398;45.328;5.558;2023-08-12T00:30:07;24.30;85.80
7738;DHT22;29398;45.328;5.558;2023-08-12T00:31:09;24.20;85.60
7738;DHT22;29398;45.328;5.558;2023-08-12T00:32:11;24.20;85.30
7738;DHT22;29398;45.328;5.558;2023-08-12T00:33:12;24.20;85.40
7738;DHT22;29398;45.328;5.558;2023-08-12T00:34:14;24.20;85.50
7738;DHT22;29398;45.328;5.558;2023-08-12T00:35:15;24.20;85.70
7738;DHT22;29398;45.328;5.558;2023-08-12T00:36:17;24.20;85.80
7738;DHT22;29398;45.328;5.558;2023-08-12T00:37:18;24.20;85.60
7738;DHT22;29398;45.328;5.558;2023-08-12T00:38:20;24.20;86.10
7738;DHT22;29398;45.328;5.558;2023-08-12T00:39:22;24.20;85.40
7738;DHT22;29398;45.328;5.558;2023-08-12T00:40:23;24.10;85.70
7738;DHT22;29398;45.328;5.558;2023-08-12T00:41:26;24.10;85.60
7738;DHT22;29398;45.328;5.558;2023-08-12T00:42:28;24.10;86.00
7738;DHT22;29398;45.328;5.558;2023-08-12T00:43:30;24.10;86.00
7738;DHT22;29398;45.328;5.558;2023-08-12T00:44:31;24.10;86.20
7738;DHT22;29398;45.328;5.558;2023-08-12T00:45:34;24.10;86.70
7738;DHT22;29398;45.328;5.558;2023-08-12T00:46:35;24.00;86.40
7738;DHT22;29398;45.328;5.558;2023-08-12T00:47:38;24.00;86.50
7738;DHT22;29398;45.328;5.558;2023-08-12T00:48:40;24.00;86.60
7738;DHT22;29398;45.328;5.558;2023-08-12T00:49:44;24.00;86.70
7738;DHT22;29398;45.328;5.558;2023-08-12T00:50:46;24.00;86.40
7738;DHT22;29398;45.328;5.558;2023-08-12T00:51:52;24.00;86.90
7738;DHT22;29398;45.328;5.558;2023-08-12T00:52:54;24.00;87.00
7738;DHT22;29398;45.328;5.558;2023-08-12T00:53:58;24.00;86.90
7738;DHT22;29398;45.328;5.558;2023-08-12T00:54:59;24.00;88.10
7738;DHT22;29398;45.328;5.558;2023-08-12T00:56:01;23.90;87.60
7738;DHT22;29398;45.328;5.558;2023-08-12T00:57:03;23.90;87.30
7738;DHT22;29398;45.328;5.558;2023-08-12T00:58:07;23.90;87.30
7738;DHT22;29398;45.328;5.558;2023-08-12T00:59:09;24.00;87.50
7738;DHT22;29398;45.328;5.558;2023-08-12T01:00:12;23.90;87.60
7738;DHT22;29398;45.328;5.558;2023-08-12T01:01:14;23.90;87.80
7738;DHT22;29398;45.328;5.558;2023-08-12T01:02:19;23.90;87.60
7738;DHT22;29398;45.328;5.558;2023-08-12T01:03:21;23.90;87.70
7738;DHT22;29398;45.328;5.558;2023-08-12T01:04:24;23.90;87.80
7738;DHT22;29398;45.328;5.558;2023-08-12T01:05:25;23.90;87.90
7738;DHT22;29398;45.328;5.558;2023-08-12T01:06:26;23.90;88.00
7738;DHT22;29398;45.328;5.558;2023-08-12T01:07:29;23.90;88.10
7738;DHT22;29398;45.328;5.558;2023-08-12T01:08:31;23.90;88.20
7738;DHT22;29398;45.328;5.558;2023-08-12T01:09:33;23.90;88.10
7738;DHT22;29398;45.328;5.558;2023-08-12T01:10:36;23.90;88.10
7738;DHT22;29398;45.328;5.558;2023-08-12T01:11:42;23.80;88.30
7738;DHT22;29398;45.328;5.558;2023-08-12T01:12:49;23.80;89.10
7738;DHT22;29398;45.328;5.558;2023-08-12T01:14:00;23.80;88.60
7738;DHT22;29398;45.328;5.558;2023-08-12T01:15:08;23.70;88.50
7738;DHT22;29398;45.328;5.558;2023-08-12T01:16:12;23.70;88.30
7738;DHT22;29398;45.328;5.558;2023-08-12T01:17:15;23.70;88.60
7738;DHT22;29398;45.328;5.558;2023-08-12T01:18:18;23.70;88.60
7738;DHT22;29398;45.328;5.558;2023-08-12T01:19:26;23.70;88.70
7738;DHT22;29398;45.328;5.558;2023-08-12T01:20:31;23.60;88.20
7738;DHT22;29398;45.328;5.558;2023-08-12T01:21:33;23.70;89.00
7738;DHT22;29398;45.328;5.558;2023-08-12T01:22:38;23.60;89.00
7738;DHT22;29398;45.328;5.558;2023-08-12T01:23:42;23.60;89.10
7738;DHT22;29398;45.328;5.558;2023-08-12T01:24:44;23.70;89.80
7738;DHT22;29398;45.328;5.558;2023-08-12T01:25:45;23.70;89.70
7738;DHT22;29398;45.328;5.558;2023-08-12T01:26:48;23.60;89.30
7738;DHT22;29398;45.328;5.558;2023-08-12T01:27:50;23.60;89.40
7738;DHT22;29398;45.328;5.558;2023-08-12T01:28:52;23.60;89.10
7738;DHT22;29398;45.328;5.558;2023-08-12T01:29:53;23.60;89.10
7738;DHT22;29398;45.328;5.558;2023-08-12T01:30:57;23.20;89.30
7738;DHT22;29398;45.328;5.558;2023-08-12T01:32:07;23.60;90.00
7738;DHT22;29398;45.328;5.558;2023-08-12T01:33:15;23.60;90.10
7738;DHT22;29398;45.328;5.558;2023-08-12T01:34:29;23.60;89.90
7738;DHT22;29398;45.328;5.558;2023-08-12T01:35:36;23.60;89.90
7738;DHT22;29398;45.328;5.558;2023-08-12T01:36:44;23.50;89.80
7738;DHT22;29398;45.328;5.558;2023-08-12T01:37:49;23.60;90.00
7738;DHT22;29398;45.328;5.558;2023-08-12T01:38:55;23.50;90.20
7738;DHT22;29398;45.328;5.558;2023-08-12T01:40:00;23.50;90.10
7738;DHT22;29398;45.328;5.558;2023-08-12T01:41:03;23.50;90.10
7738;DHT22;29398;45.328;5.558;2023-08-12T01:42:05;23.50;90.10
7738;DHT22;29398;45.328;5.558;2023-08-12T01:43:08;23.50;90.20
7738;DHT22;29398;45.328;5.558;2023-08-12T01:44:10;23.50;90.20
7738;DHT22;29398;45.328;5.558;2023-08-12T01:45:12;23.50;90.30
7738;DHT22;29398;45.328;5.558;2023-08-12T01:46:13;23.50;90.30
7738;DHT22;29398;45.328;5.558;2023-08-12T01:47:15;23.50;90.30
7738;DHT22;29398;45.328;5.558;2023-08-12T01:48:16;23.50;90.40
7738;DHT22;29398;45.328;5.558;2023-08-12T01:49:21;23.50;90.50
7738;DHT22;29398;45.328;5.558;2023-08-12T01:50:24;23.50;90.40
7738;DHT22;29398;45.328;5.558;2023-08-12T01:51:29;23.50;90.50
7738;DHT22;29398;45.328;5.558;2023-08-12T01:52:30;22.00;90.10
7738;DHT22;29398;45.328;5.558;2023-08-12T01:53:32;23.40;90.40
7738;DHT22;29398;45.328;5.558;2023-08-12T01:54:35;23.40;90.50
7738;DHT22;29398;45.328;5.558;2023-08-12T01:55:37;23.40;90.70
7738;DHT22;29398;45.328;5.558;2023-08-12T01:56:39;23.40;90.60
7738;DHT22;29398;45.328;5.558;2023-08-12T01:57:41;23.30;90.50
7738;DHT22;29398;45.328;5.558;2023-08-12T01:58:42;23.30;90.60
7738;DHT22;29398;45.328;5.558;2023-08-12T01:59:44;23.50;92.00
7738;DHT22;29398;45.328;5.558;2023-08-12T02:00:46;23.40;90.90
7738;DHT22;29398;45.328;5.558;2023-08-12T02:01:48;23.30;90.90
7738;DHT22;29398;45.328;5.558;2023-08-12T02:02:49;23.30;90.90
7738;DHT22;29398;45.328;5.558;2023-08-12T02:03:51;23.40;91.00
7738;DHT22;29398;45.328;5.558;2023-08-12T02:04:52;23.40;91.00
7738;DHT22;29398;45.328;5.558;2023-08-12T02:05:54;23.30;91.00
7738;DHT22;29398;45.328;5.558;2023-08-12T02:06:56;23.30;90.80
7738;DHT22;29398;45.328;5.558;2023-08-12T02:07:58;23.30;90.70
7738;DHT22;29398;45.328;5.558;2023-08-12T02:09:00;23.30;91.00
7738;DHT22;29398;45.328;5.558;2023-08-12T02:10:03;23.20;90.90
7738;DHT22;29398;45.328;5.558;2023-08-12T02:11:06;23.20;91.00
7738;DHT22;29398;45.328;5.558;2023-08-12T02:12:08;23.30;91.10
7738;DHT22;29398;45.328;5.558;2023-08-12T02:13:09;23.20;91.00
7738;DHT22;29398;45.328;5.558;2023-08-12T02:15:13;23.20;90.90
7738;DHT22;29398;45.328;5.558;2023-08-12T02:16:15;23.20;91.20
7738;DHT22;29398;45.328;5.558;2023-08-12T02:17:16;23.20;91.20
7738;DHT22;29398;45.328;5.558;2023-08-12T02:18:18;23.20;91.20
7738;DHT22;29398;45.328;5.558;2023-08-12T02:19:19;23.20;91.30
7738;DHT22;29398;45.328;5.558;2023-08-12T02:20:21;23.20;91.40
7738;DHT22;29398;45.328;5.558;2023-08-12T02:21:22;23.20;91.50
7738;DHT22;29398;45.328;5.558;2023-08-12T02:22:24;23.10;91.30
7738;DHT22;29398;45.328;5.558;2023-08-12T02:23:26;23.10;91.80
7738;DHT22;29398;45.328;5.558;2023-08-12T02:24:28;23.00;91.80
7738;DHT22;29398;45.328;5.558;2023-08-12T02:25:31;23.00;91.70
7738;DHT22;29398;45.328;5.558;2023-08-12T02:26:34;23.00;92.00
7738;DHT22;29398;45.328;5.558;2023-08-12T02:27:36;23.00;92.00
7738;DHT22;29398;45.328;5.558;2023-08-12T02:28:37;23.00;92.40
7738;DHT22;29398;45.328;5.558;2023-08-12T02:29:39;22.90;92.20
7738;DHT22;29398;45.328;5.558;2023-08-12T02:30:42;22.80;92.20
7738;DHT22;29398;45.328;5.558;2023-08-12T02:31:44;21.60;94.40
7738;DHT22;29398;45.328;5.558;2023-08-12T02:32:45;22.80;92.60
7738;DHT22;29398;45.328;5.558;2023-08-12T02:33:48;22.80;93.70
7738;DHT22;29398;45.328;5.558;2023-08-12T02:34:50;22.70;92.90
7738;DHT22;29398;45.328;5.558;2023-08-12T02:35:53;22.70;92.90
7738;DHT22;29398;45.328;5.558;2023-08-12T02:36:55;22.70;93.00
7738;DHT22;29398;45.328;5.558;2023-08-12T02:37:57;22.70;93.00
7738;DHT22;29398;45.328;5.558;2023-08-12T02:38:58;22.70;93.10
7738;DHT22;29398;45.328;5.558;2023-08-12T02:40:00;22.60;93.10
7738;DHT22;29398;45.328;5.558;2023-08-12T02:41:06;22.60;93.40
7738;DHT22;29398;45.328;5.558;2023-08-12T02:42:08;22.60;93.30
7738;DHT22;29398;45.328;5.558;2023-08-12T02:43:09;22.60;93.50
7738;DHT22;29398;45.328;5.558;2023-08-12T02:44:12;22.60;93.60
7738;DHT22;29398;45.328;5.558;2023-08-12T02:45:13;22.50;93.70
7738;DHT22;29398;45.328;5.558;2023-08-12T02:46:15;22.50;93.80
7738;DHT22;29398;45.328;5.558;2023-08-12T02:47:16;22.50;93.80
7738;DHT22;29398;45.328;5.558;2023-08-12T02:48:18;22.50;93.80
7738;DHT22;29398;45.328;5.558;2023-08-12T02:49:20;22.50;93.90
7738;DHT22;29398;45.328;5.558;2023-08-12T02:50:21;22.50;94.10
7738;DHT22;29398;45.328;5.558;2023-08-12T02:51:23;22.50;94.40
7738;DHT22;29398;45.328;5.558;2023-08-12T02:52:24;22.50;94.20
7738;DHT22;29398;45.328;5.558;2023-08-12T02:53:26;22.50;94.30
7738;DHT22;29398;45.328;5.558;2023-08-12T02:54:27;22.50;94.30
7738;DHT22;29398;45.328;5.558;2023-08-12T02:55:29;22.50;94.30
7738;DHT22;29398;45.328;5.558;2023-08-12T02:56:34;22.60;94.40
7738;DHT22;29398;45.328;5.558;2023-08-12T02:57:36;22.50;94.30
7738;DHT22;29398;45.328;5.558;2023-08-12T02:58:37;22.50;94.40
7738;DHT22;29398;45.328;5.558;2023-08-12T02:59:39;22.50;94.60
7738;DHT22;29398;45.328;5.558;2023-08-12T03:00:41;22.40;94.50
7738;DHT22;29398;45.328;5.558;2023-08-12T03:01:44;22.50;94.50
7738;DHT22;29398;45.328;5.558;2023-08-12T03:02:45;22.50;94.70
7738;DHT22;29398;45.328;5.558;2023-08-12T03:03:47;22.50;94.60
7738;DHT22;29398;45.328;5.558;2023-08-12T03:04:48;22.50;94.60
7738;DHT22;29398;45.328;5.558;2023-08-12T03:05:50;22.50;94.60
7738;DHT22;29398;45.328;5.558;2023-08-12T03:06:52;22.50;94.70
7738;DHT22;29398;45.328;5.558;2023-08-12T03:07:54;22.50;94.70
7738;DHT22;29398;45.328;5.558;2023-08-12T03:09:58;22.50;94.50
7738;DHT22;29398;45.328;5.558;2023-08-12T03:10:59;22.50;94.60
7738;DHT22;29398;45.328;5.558;2023-08-12T03:12:04;22.50;94.70
7738;DHT22;29398;45.328;5.558;2023-08-12T03:13:06;22.50;94.80
7738;DHT22;29398;45.328;5.558;2023-08-12T03:14:08;22.50;94.80
7738;DHT22;29398;45.328;5.558;2023-08-12T03:15:10;22.40;94.70
7738;DHT22;29398;45.328;5.558;2023-08-12T03:16:13;22.50;94.80
7738;DHT22;29398;45.328;5.558;2023-08-12T03:17:16;22.40;94.80
7738;DHT22;29398;45.328;5.558;2023-08-12T03:18:18;22.40;94.80
7738;DHT22;29398;45.328;5.558;2023-08-12T03:19:20;22.40;94.80
7738;DHT22;29398;45.328;5.558;2023-08-12T03:20:23;22.40;94.90
7738;DHT22;29398;45.328;5.558;2023-08-12T03:21:25;22.40;94.90
7738;DHT22;29398;45.328;5.558;2023-08-12T03:22:27;22.40;94.80
7738;DHT22;29398;45.328;5.558;2023-08-12T03:23:28;22.40;95.00
7738;DHT22;29398;45.328;5.558;2023-08-12T03:24:32;22.40;95.00
7738;DHT22;29398;45.328;5.558;2023-08-12T03:25:33;22.40;95.00
7738;DHT22;29398;45.328;5.558;2023-08-12T03:26:37;22.40;95.00
7738;DHT22;29398;45.328;5.558;2023-08-12T03:27:41;22.40;95.00
7738;DHT22;29398;45.328;5.558;2023-08-12T03:28:44;22.40;94.90
7738;DHT22;29398;45.328;5.558;2023-08-12T03:29:48;22.40;95.20
7738;DHT22;29398;45.328;5.558;2023-08-12T03:30:51;22.40;94.90
7738;DHT22;29398;45.328;5.558;2023-08-12T03:31:54;22.40;95.20
7738;DHT22;29398;45.328;5.558;2023-08-12T03:32:58;22.40;94.70
7738;DHT22;29398;45.328;5.558;2023-08-12T03:34:02;22.40;95.00
7738;DHT22;29398;45.328;5.558;2023-08-12T03:35:07;22.40;95.00
7738;DHT22;29398;45.328;5.558;2023-08-12T03:36:09;22.40;95.00
7738;DHT22;29398;45.328;5.558;2023-08-12T03:37:11;22.40;95.00
7738;DHT22;29398;45.328;5.558;2023-08-12T03:38:12;22.40;95.10
7738;DHT22;29398;45.328;5.558;2023-08-12T03:39:15;22.40;95.10
7738;DHT22;29398;45.328;5.558;2023-08-12T03:40:17;22.40;95.20
7738;DHT22;29398;45.328;5.558;2023-08-12T03:41:19;22.40;95.20
7738;DHT22;29398;45.328;5.558;2023-08-12T03:42:21;22.40;95.30
7738;DHT22;29398;45.328;5.558;2023-08-12T03:43:24;22.30;95.50
7738;DHT22;29398;45.328;5.558;2023-08-12T03:44:27;22.30;95.30
7738;DHT22;29398;45.328;5.558;2023-08-12T03:45:28;22.30;95.30
7738;DHT22;29398;45.328;5.558;2023-08-12T03:46:30;22.30;95.40
7738;DHT22;29398;45.328;5.558;2023-08-12T03:47:32;22.30;95.30
7738;DHT22;29398;45.328;5.558;2023-08-12T03:48:35;22.30;95.40
7738;DHT22;29398;45.328;5.558;2023-08-12T03:49:36;22.30;95.40
7738;DHT22;29398;45.328;5.558;2023-08-12T03:50:39;22.30;95.60
7738;DHT22;29398;45.328;5.558;2023-08-12T03:51:40;22.30;95.50
7738;DHT22;29398;45.328;5.558;2023-08-12T03:52:42;22.30;95.50
7738;DHT22;29398;45.328;5.558;2023-08-12T03:53:43;22.30;95.60
7738;DHT22;29398;45.328;5.558;2023-08-12T03:54:46;22.30;95.60
7738;DHT22;29398;45.328;5.558;2023-08-12T03:55:47;22.30;95.70
7738;DHT22;29398;45.328;5.558;2023-08-12T03:56:50;22.30;95.70
7738;DHT22;29398;45.328;5.558;2023-08-12T03:57:52;22.30;95.70
7738;DHT22;29398;45.328;5.558;2023-08-12T03:58:56;22.30;95.80
7738;DHT22;29398;45.328;5.558;2023-08-12T03:59:58;22.30;95.80
7738;DHT22;29398;45.328;5.558;2023-08-12T04:01:00;22.20;95.80
7738;DHT22;29398;45.328;5.558;2023-08-12T04:02:01;22.20;95.90
7738;DHT22;29398;45.328;5.558;2023-08-12T04:03:05;22.30;95.90
7738;DHT22;29398;45.328;5.558;2023-08-12T04:04:06;22.30;95.80
7738;DHT22;29398;45.328;5.558;2023-08-12T04:05:08;22.20;95.80
7738;DHT22;29398;45.328;5.558;2023-08-12T04:06:09;22.20;95.90
7738;DHT22;29398;45.328;5.558;2023-08-12T04:07:11;22.20;95.80
7738;DHT22;29398;45.328;5.558;2023-08-12T04:08:12;22.20;95.90
7738;DHT22;29398;45.328;5.558;2023-08-12T04:09:14;22.20;96.00
7738;DHT22;29398;45.328;5.558;2023-08-12T04:10:16;22.20;96.10
7738;DHT22;29398;45.328;5.558;2023-08-12T04:11:19;22.20;96.30
7738;DHT22;29398;45.328;5.558;2023-08-12T04:12:20;22.20;96.40
7738;DHT22;29398;45.328;5.558;2023-08-12T04:13:22;22.10;96.50
7738;DHT22;29398;45.328;5.558;2023-08-12T04:14:25;22.10;96.40
7738;DHT22;29398;45.328;5.558;2023-08-12T04:15:27;22.10;96.50
7738;DHT22;29398;45.328;5.558;2023-08-12T04:16:28;22.10;96.80
7738;DHT22;29398;45.328;5.558;2023-08-12T04:17:32;22.00;96.80
7738;DHT22;29398;45.328;5.558;2023-08-12T04:18:34;22.00;96.90
7738;DHT22;29398;45.328;5.558;2023-08-12T04:19:36;21.90;97.00
7738;DHT22;29398;45.328;5.558;2023-08-12T04:20:38;21.90;97.10
7738;DHT22;29398;45.328;5.558;2023-08-12T04:21:40;21.90;97.30
7738;DHT22;29398;45.328;5.558;2023-08-12T04:22:41;21.90;97.30
7738;DHT22;29398;45.328;5.558;2023-08-12T04:23:43;21.90;97.60
7738;DHT22;29398;45.328;5.558;2023-08-12T04:24:46;21.90;97.40
7738;DHT22;29398;45.328;5.558;2023-08-12T04:25:49;21.90;97.80
7738;DHT22;29398;45.328;5.558;2023-08-12T04:26:51;21.90;97.60
7738;DHT22;29398;45.328;5.558;2023-08-12T04:27:53;21.80;97.60
7738;DHT22;29398;45.328;5.558;2023-08-12T04:28:57;21.90;97.70
7738;DHT22;29398;45.328;5.558;2023-08-12T04:30:01;21.80;97.80
7738;DHT22;29398;45.328;5.558;2023-08-12T04:31:06;21.80;97.70
7738;DHT22;29398;45.328;5.558;2023-08-12T04:32:09;21.80;97.90
7738;DHT22;29398;45.328;5.558;2023-08-12T04:33:12;21.80;98.00
7738;DHT22;29398;45.328;5.558;2023-08-12T04:34:14;21.80;98.00
7738;DHT22;29398;45.328;5.558;2023-08-12T04:35:15;21.70;99.90
7738;DHT22;29398;45.328;5.558;2023-08-12T04:36:18;21.70;97.90
7738;DHT22;29398;45.328;5.558;2023-08-12T04:37:19;21.80;98.20
7738;DHT22;29398;45.328;5.558;2023-08-12T04:38:21;21.80;98.20
7738;DHT22;29398;45.328;5.558;2023-08-12T04:39:24;21.80;98.30
7738;DHT22;29398;45.328;5.558;2023-08-12T04:40:27;21.80;98.30
7738;DHT22;29398;45.328;5.558;2023-08-12T04:41:28;21.80;98.40
7738;DHT22;29398;45.328;5.558;2023-08-12T04:42:32;21.80;98.50
7738;DHT22;29398;45.328;5.558;2023-08-12T04:43:33;21.80;98.50
7738;DHT22;29398;45.328;5.558;2023-08-12T04:44:35;21.20;98.40
7738;DHT22;29398;45.328;5.558;2023-08-12T04:45:38;21.80;98.60
7738;DHT22;29398;45.328;5.558;2023-08-12T04:46:40;21.80;98.70
7738;DHT22;29398;45.328;5.558;2023-08-12T04:47:42;21.70;99.90
7738;DHT22;29398;45.328;5.558;2023-08-12T04:48:47;21.70;98.90
7738;DHT22;29398;45.328;5.558;2023-08-12T04:49:48;21.70;99.00
7738;DHT22;29398;45.328;5.558;2023-08-12T04:50:51;21.70;99.10
7738;DHT22;29398;45.328;5.558;2023-08-12T04:51:52;21.80;99.50
7738;DHT22;29398;45.328;5.558;2023-08-12T04:52:55;21.80;99.20
7738;DHT22;29398;45.328;5.558;2023-08-12T04:53:57;21.80;99.90
7738;DHT22;29398;45.328;5.558;2023-08-12T04:55:01;21.80;99.90
7738;DHT22;29398;45.328;5.558;2023-08-12T04:56:04;21.80;99.90
7738;DHT22;29398;45.328;5.558;2023-08-12T04:57:06;21.80;99.90
7738;DHT22;29398;45.328;5.558;2023-08-12T04:58:07;21.80;99.90
7738;DHT22;29398;45.328;5.558;2023-08-12T04:59:09;21.80;99.80
7738;DHT22;29398;45.328;5.558;2023-08-12T05:00:12;21.90;99.90
7738;DHT22;29398;45.328;5.558;2023-08-12T05:01:16;21.90;99.90
7738;DHT22;29398;45.328;5.558;2023-08-12T05:02:17;21.80;99.60
7738;DHT22;29398;45.328;5.558;2023-08-12T05:03:22;21.80;99.60
7738;DHT22;29398;45.328;5.558;2023-08-12T05:04:24;21.90;99.90
7738;DHT22;29398;45.328;5.558;2023-08-12T05:05:27;21.90;99.90
7738;DHT22;29398;45.328;5.558;2023-08-12T05:06:28;21.90;99.90
7738;DHT22;29398;45.328;5.558;2023-08-12T05:07:32;21.90;99.90
7738;DHT22;29398;45.328;5.558;2023-08-12T05:08:35;22.00;99.90
7738;DHT22;29398;45.328;5.558;2023-08-12T05:09:37;21.70;99.90
7738;DHT22;29398;45.328;5.558;2023-08-12T05:10:39;21.90;99.90
7738;DHT22;29398;45.328;5.558;2023-08-12T05:11:41;21.90;99.90
7738;DHT22;29398;45.328;5.558;2023-08-12T05:12:44;22.10;99.90
7738;DHT22;29398;45.328;5.558;2023-08-12T05:13:47;21.90;99.90
7738;DHT22;29398;45.328;5.558;2023-08-12T05:14:48;22.00;99.90
7738;DHT22;29398;45.328;5.558;2023-08-12T05:15:51;22.00;99.90
7738;DHT22;29398;45.328;5.558;2023-08-12T05:16:54;22.10;99.90
7738;DHT22;29398;45.328;5.558;2023-08-12T05:17:56;21.90;99.90
7738;DHT22;29398;45.328;5.558;2023-08-12T05:18:58;21.90;99.90
7738;DHT22;29398;45.328;5.558;2023-08-12T05:20:01;22.00;99.90
7738;DHT22;29398;45.328;5.558;2023-08-12T05:21:02;22.00;99.90
7738;DHT22;29398;45.328;5.558;2023-08-12T05:22:04;22.10;99.90
7738;DHT22;29398;45.328;5.558;2023-08-12T05:23:05;22.10;99.90
7738;DHT22;29398;45.328;5.558;2023-08-12T05:24:08;22.10;99.90
7738;DHT22;29398;45.328;5.558;2023-08-12T05:26:12;22.10;99.90
7738;DHT22;29398;45.328;5.558;2023-08-12T05:27:13;22.10;99.90
7738;DHT22;29398;45.328;5.558;2023-08-12T05:28:15;22.10;99.90
7738;DHT22;29398;45.328;5.558;2023-08-12T05:29:16;22.10;99.90
7738;DHT22;29398;45.328;5.558;2023-08-12T05:30:18;22.10;99.90
7738;DHT22;29398;45.328;5.558;2023-08-12T05:31:19;22.10;99.90
7738;DHT22;29398;45.328;5.558;2023-08-12T05:32:23;22.00;99.90
7738;DHT22;29398;45.328;5.558;2023-08-12T05:33:24;22.00;99.90
7738;DHT22;29398;45.328;5.558;2023-08-12T05:34:26;22.00;99.90
7738;DHT22;29398;45.328;5.558;2023-08-12T05:35:27;22.00;99.90
7738;DHT22;29398;45.328;5.558;2023-08-12T05:36:29;22.00;99.90
7738;DHT22;29398;45.328;5.558;2023-08-12T05:37:30;22.00;99.90
7738;DHT22;29398;45.328;5.558;2023-08-12T05:38:33;22.00;99.90
7738;DHT22;29398;45.328;5.558;2023-08-12T05:39:34;22.00;99.90
7738;DHT22;29398;45.328;5.558;2023-08-12T05:40:36;22.10;99.90
7738;DHT22;29398;45.328;5.558;2023-08-12T05:41:37;22.10;99.90
7738;DHT22;29398;45.328;5.558;2023-08-12T05:42:39;22.10;99.90
7738;DHT22;29398;45.328;5.558;2023-08-12T05:43:40;22.10;99.90
7738;DHT22;29398;45.328;5.558;2023-08-12T05:44:42;22.20;99.90
7738;DHT22;29398;45.328;5.558;2023-08-12T05:45:43;22.10;99.90
7738;DHT22;29398;45.328;5.558;2023-08-12T05:46:45;22.50;99.90
7738;DHT22;29398;45.328;5.558;2023-08-12T05:47:48;22.20;99.90
7738;DHT22;29398;45.328;5.558;2023-08-12T05:48:50;22.20;99.90
7738;DHT22;29398;45.328;5.558;2023-08-12T05:49:51;22.30;99.90
7738;DHT22;29398;45.328;5.558;2023-08-12T05:50:53;22.30;99.90
7738;DHT22;29398;45.328;5.558;2023-08-12T05:51:54;22.30;99.90
7738;DHT22;29398;45.328;5.558;2023-08-12T05:52:56;22.30;99.90
7738;DHT22;29398;45.328;5.558;2023-08-12T05:53:57;22.30;99.90
7738;DHT22;29398;45.328;5.558;2023-08-12T05:54:59;22.30;99.90
7738;DHT22;29398;45.328;5.558;2023-08-12T05:56:00;22.20;99.90
7738;DHT22;29398;45.328;5.558;2023-08-12T05:57:02;22.30;99.90
7738;DHT22;29398;45.328;5.558;2023-08-12T05:58:04;22.30;99.90
7738;DHT22;29398;45.328;5.558;2023-08-12T05:59:06;22.30;99.90
7738;DHT22;29398;45.328;5.558;2023-08-12T06:00:11;22.30;99.90
7738;DHT22;29398;45.328;5.558;2023-08-12T06:01:13;22.30;99.90
7738;DHT22;29398;45.328;5.558;2023-08-12T06:02:15;22.30;99.90
7738;DHT22;29398;45.328;5.558;2023-08-12T06:03:19;22.40;99.90
7738;DHT22;29398;45.328;5.558;2023-08-12T06:04:20;22.40;99.90
7738;DHT22;29398;45.328;5.558;2023-08-12T06:05:22;22.40;99.90
7738;DHT22;29398;45.328;5.558;2023-08-12T06:06:23;22.40;99.90
7738;DHT22;29398;45.328;5.558;2023-08-12T06:07:25;22.40;99.90
7738;DHT22;29398;45.328;5.558;2023-08-12T06:08:26;22.50;99.90
7738;DHT22;29398;45.328;5.558;2023-08-12T06:09:28;22.50;99.90
7738;DHT22;29398;45.328;5.558;2023-08-12T06:10:29;22.40;99.90
7738;DHT22;29398;45.328;5.558;2023-08-12T06:11:31;22.50;99.90
7738;DHT22;29398;45.328;5.558;2023-08-12T06:12:32;22.50;99.90
7738;DHT22;29398;45.328;5.558;2023-08-12T06:13:34;22.70;99.90
7738;DHT22;29398;45.328;5.558;2023-08-12T06:14:36;22.50;99.90
7738;DHT22;29398;45.328;5.558;2023-08-12T06:15:39;22.60;99.90
7738;DHT22;29398;45.328;5.558;2023-08-12T06:16:40;22.60;99.90
7738;DHT22;29398;45.328;5.558;2023-08-12T06:17:41;22.60;99.90
7738;DHT22;29398;45.328;5.558;2023-08-12T06:18:44;22.60;99.90
7738;DHT22;29398;45.328;5.558;2023-08-12T06:19:45;22.60;99.90
7738;DHT22;29398;45.328;5.558;2023-08-12T06:20:47;22.70;99.90
7738;DHT22;29398;45.328;5.558;2023-08-12T06:21:48;22.70;99.90
7738;DHT22;29398;45.328;5.558;2023-08-12T06:22:51;22.70;99.90
7738;DHT22;29398;45.328;5.558;2023-08-12T06:23:52;22.70;99.90
7738;DHT22;29398;45.328;5.558;2023-08-12T06:24:56;22.50;99.90
7738;DHT22;29398;45.328;5.558;2023-08-12T06:25:57;22.90;99.90
7738;DHT22;29398;45.328;5.558;2023-08-12T06:26:59;21.10;99.90
7738;DHT22;29398;45.328;5.558;2023-08-12T06:28:00;22.90;99.90
7738;DHT22;29398;45.328;5.558;2023-08-12T06:29:05;22.90;99.90
7738;DHT22;29398;45.328;5.558;2023-08-12T06:30:07;23.00;99.90
7738;DHT22;29398;45.328;5.558;2023-08-12T06:31:09;23.00;99.90
7738;DHT22;29398;45.328;5.558;2023-08-12T06:32:10;23.00;99.90
7738;DHT22;29398;45.328;5.558;2023-08-12T06:33:13;23.40;99.90
7738;DHT22;29398;45.328;5.558;2023-08-12T06:34:16;23.00;99.90
7738;DHT22;29398;45.328;5.558;2023-08-12T06:35:18;23.10;99.90
7738;DHT22;29398;45.328;5.558;2023-08-12T06:36:19;23.10;99.90
7738;DHT22;29398;45.328;5.558;2023-08-12T06:37:21;23.10;99.90
7738;DHT22;29398;45.328;5.558;2023-08-12T06:38:22;23.10;99.90
7738;DHT22;29398;45.328;5.558;2023-08-12T06:39:24;23.20;99.90
7738;DHT22;29398;45.328;5.558;2023-08-12T06:40:25;23.20;99.90
7738;DHT22;29398;45.328;5.558;2023-08-12T06:41:28;21.70;99.90
7738;DHT22;29398;45.328;5.558;2023-08-12T06:42:29;23.20;99.90
7738;DHT22;29398;45.328;5.558;2023-08-12T06:43:31;22.40;99.90
7738;DHT22;29398;45.328;5.558;2023-08-12T06:44:32;23.30;99.90